Time;durP1;ratioP1;P1;durP2;ratioP2;P2;SDS_P1;SDS_P2;PMS_P1;PMS_P2;Temp;Humidity;BMP_temperature;BMP_pressure;BME280_temperature;BME280_humidity;BME280_pressure;Samples;Min_cycle;Max_cycle;Signal;HPM_P1;HPM_P2
2021/02/15 00:00:53;;;;;;;3.55;2.35;;;;;;;-6.73;100;96921.22;;;;
2021/02/15 00:01:54;;;;;;;3.55;2.35;;;;;;;-6.73;100;96921.22;;;;
2021/02/15 00:02:55;;;;;;;3.55;2.35;;;;;;;-6.73;100;96921.22;;;;
2021/02/15 00:03:55;;;;;;;3.55;2.35;;;;;;;-6.73;100;96921.22;;;;
2021/02/15 00:04:56;;;;;;;3.55;2.35;;;;;;;-6.73;100;96921.22;;;;
2021/02/15 00:05:56;;;;;;;3.55;2.35;;;;;;;-6.73;100;96921.22;;;;
2021/02/15 00:06:57;;;;;;;3.55;2.35;;;;;;;-6.73;100;96921.22;;;;
2021/02/15 00:07:57;;;;;;;5.250001;3;;;;;;;-6.65;100;96895.75;;;;
2021/02/15 00:08:58;;;;;;;5.250001;3;;;;;;;-6.65;100;96895.75;;;;
2021/02/15 00:09:58;;;;;;;5.250001;3;;;;;;;-6.65;100;96895.75;;;;
2021/02/15 00:10:59;;;;;;;5.250001;3;;;;;;;-6.65;100;96895.75;;;;
2021/02/15 00:12:00;;;;;;;5.250001;3;;;;;;;-6.65;100;96895.75;;;;
2021/02/15 00:13:00;;;;;;;5.250001;3;;;;;;;-6.65;100;96895.75;;;;
2021/02/15 00:14:01;;;;;;;5.250001;3;;;;;;;-6.65;100;96895.75;;;;
2021/02/15 00:15:02;;;;;;;5.250001;3;;;;;;;-6.65;100;96895.75;;;;
2021/02/15 00:16:04;;;;;;;5.250001;3;;;;;;;-6.65;100;96895.75;;;;
2021/02/15 00:17:05;;;;;;;5.250001;3;;;;;;;-6.65;100;96895.75;;;;
2021/02/15 00:18:05;;;;;;;5.250001;3;;;;;;;-6.65;100;96895.75;;;;
2021/02/15 00:19:06;;;;;;;6.1;3;;;;;;;-6.59;100;96891.91;;;;
2021/02/15 00:20:07;;;;;;;6.1;3;;;;;;;-6.59;100;96891.91;;;;
2021/02/15 00:21:08;;;;;;;6.1;3;;;;;;;-6.59;100;96891.91;;;;
2021/02/15 00:22:09;;;;;;;6.1;3;;;;;;;-6.59;100;96891.91;;;;
2021/02/15 00:23:10;;;;;;;6.1;3;;;;;;;-6.59;100;96891.91;;;;
2021/02/15 00:24:10;;;;;;;6.1;3;;;;;;;-6.59;100;96891.91;;;;
2021/02/15 00:25:11;;;;;;;6.1;3;;;;;;;-6.59;100;96891.91;;;;
2021/02/15 00:26:13;;;;;;;6.1;3;;;;;;;-6.59;100;96891.91;;;;
2021/02/15 00:27:13;;;;;;;6.1;3;;;;;;;-6.59;100;96891.91;;;;
2021/02/15 00:28:14;;;;;;;6.1;3;;;;;;;-6.59;100;96891.91;;;;
2021/02/15 00:29:15;;;;;;;4.1;2.8;;;;;;;-6.56;100;96889.95;;;;
2021/02/15 00:30:16;;;;;;;4.1;2.8;;;;;;;-6.56;100;96889.95;;;;
2021/02/15 00:31:17;;;;;;;4.1;2.8;;;;;;;-6.56;100;96889.95;;;;
2021/02/15 00:32:17;;;;;;;4.1;2.8;;;;;;;-6.56;100;96889.95;;;;
2021/02/15 00:33:18;;;;;;;4.1;2.8;;;;;;;-6.56;100;96889.95;;;;
2021/02/15 00:34:18;;;;;;;4.1;2.8;;;;;;;-6.56;100;96889.95;;;;
2021/02/15 00:35:19;;;;;;;4.1;2.8;;;;;;;-6.56;100;96889.95;;;;
2021/02/15 00:36:19;;;;;;;4.1;2.8;;;;;;;-6.56;100;96889.95;;;;
2021/02/15 00:37:20;;;;;;;4.1;2.8;;;;;;;-6.56;100;96889.95;;;;
2021/02/15 00:38:21;;;;;;;4.1;2.8;;;;;;;-6.56;100;96889.95;;;;
2021/02/15 00:39:21;;;;;;;4.1;2.8;;;;;;;-6.56;100;96889.95;;;;
2021/02/15 00:40:21;;;;;;;3.7;2.7;;;;;;;-6.55;100;96879.83;;;;
2021/02/15 00:41:22;;;;;;;3.7;2.7;;;;;;;-6.55;100;96879.83;;;;
2021/02/15 00:42:22;;;;;;;3.7;2.7;;;;;;;-6.55;100;96879.83;;;;
2021/02/15 00:43:23;;;;;;;3.7;2.7;;;;;;;-6.55;100;96879.83;;;;
2021/02/15 00:44:23;;;;;;;3.7;2.7;;;;;;;-6.55;100;96879.83;;;;
2021/02/15 00:45:24;;;;;;;3.7;2.7;;;;;;;-6.55;100;96879.83;;;;
2021/02/15 00:46:24;;;;;;;3.7;2.7;;;;;;;-6.55;100;96879.83;;;;
2021/02/15 00:47:25;;;;;;;3.7;2.7;;;;;;;-6.55;100;96879.83;;;;
2021/02/15 00:48:25;;;;;;;3.7;2.7;;;;;;;-6.55;100;96879.83;;;;
2021/02/15 00:49:26;;;;;;;3.7;2.7;;;;;;;-6.55;100;96879.83;;;;
2021/02/15 00:50:26;;;;;;;5.25;2.9;;;;;;;-6.56;100;96878.59;;;;
2021/02/15 00:51:27;;;;;;;5.25;2.9;;;;;;;-6.56;100;96878.59;;;;
2021/02/15 00:52:27;;;;;;;5.25;2.9;;;;;;;-6.56;100;96878.59;;;;
2021/02/15 00:53:28;;;;;;;5.25;2.9;;;;;;;-6.56;100;96878.59;;;;
2021/02/15 00:54:28;;;;;;;5.25;2.9;;;;;;;-6.56;100;96878.59;;;;
2021/02/15 00:55:29;;;;;;;5.25;2.9;;;;;;;-6.56;100;96878.59;;;;
2021/02/15 00:56:29;;;;;;;5.25;2.9;;;;;;;-6.56;100;96878.59;;;;
2021/02/15 00:57:30;;;;;;;5.25;2.9;;;;;;;-6.56;100;96878.59;;;;
2021/02/15 00:58:30;;;;;;;5.25;2.9;;;;;;;-6.56;100;96878.59;;;;
2021/02/15 00:59:31;;;;;;;5.25;2.9;;;;;;;-6.56;100;96878.59;;;;
2021/02/15 01:00:32;;;;;;;5.25;2.9;;;;;;;-6.56;100;96878.59;;;;
2021/02/15 01:01:32;;;;;;;4.95;2.9;;;;;;;-6.74;100;96871.82;;;;
2021/02/15 01:02:33;;;;;;;4.95;2.9;;;;;;;-6.74;100;96871.82;;;;
2021/02/15 01:03:34;;;;;;;4.95;2.9;;;;;;;-6.74;100;96871.82;;;;
2021/02/15 01:04:34;;;;;;;4.95;2.9;;;;;;;-6.74;100;96871.82;;;;
2021/02/15 01:05:35;;;;;;;4.95;2.9;;;;;;;-6.74;100;96871.82;;;;
2021/02/15 01:06:35;;;;;;;4.95;2.9;;;;;;;-6.74;100;96871.82;;;;
2021/02/15 01:07:36;;;;;;;4.95;2.9;;;;;;;-6.74;100;96871.82;;;;
2021/02/15 01:08:36;;;;;;;4.95;2.9;;;;;;;-6.74;100;96871.82;;;;
2021/02/15 01:09:37;;;;;;;4.95;2.9;;;;;;;-6.74;100;96871.82;;;;
2021/02/15 01:10:37;;;;;;;4.95;2.9;;;;;;;-6.74;100;96871.82;;;;
2021/02/15 01:11:38;;;;;;;5.449999;3.05;;;;;;;-6.82;100;96871.45;;;;
2021/02/15 01:12:38;;;;;;;5.449999;3.05;;;;;;;-6.82;100;96871.45;;;;
2021/02/15 01:13:39;;;;;;;5.449999;3.05;;;;;;;-6.82;100;96871.45;;;;
2021/02/15 01:14:39;;;;;;;5.449999;3.05;;;;;;;-6.82;100;96871.45;;;;
2021/02/15 01:15:40;;;;;;;5.449999;3.05;;;;;;;-6.82;100;96871.45;;;;
2021/02/15 01:16:41;;;;;;;5.449999;3.05;;;;;;;-6.82;100;96871.45;;;;
2021/02/15 01:17:41;;;;;;;5.449999;3.05;;;;;;;-6.82;100;96871.45;;;;
2021/02/15 01:18:42;;;;;;;5.449999;3.05;;;;;;;-6.82;100;96871.45;;;;
2021/02/15 01:19:43;;;;;;;5.449999;3.05;;;;;;;-6.82;100;96871.45;;;;
2021/02/15 01:20:44;;;;;;;5.449999;3.05;;;;;;;-6.82;100;96871.45;;;;
2021/02/15 01:21:45;;;;;;;5.449999;3.05;;;;;;;-6.82;100;96871.45;;;;
2021/02/15 01:22:46;;;;;;;3.85;2.9;;;;;;;-6.88;100;96866.99;;;;
2021/02/15 01:23:47;;;;;;;3.85;2.9;;;;;;;-6.88;100;96866.99;;;;
2021/02/15 01:24:48;;;;;;;3.85;2.9;;;;;;;-6.88;100;96866.99;;;;
2021/02/15 01:25:48;;;;;;;3.85;2.9;;;;;;;-6.88;100;96866.99;;;;
2021/02/15 01:26:49;;;;;;;3.85;2.9;;;;;;;-6.88;100;96866.99;;;;
2021/02/15 01:27:50;;;;;;;3.85;2.9;;;;;;;-6.88;100;96866.99;;;;
2021/02/15 01:28:50;;;;;;;3.85;2.9;;;;;;;-6.88;100;96866.99;;;;
2021/02/15 01:29:51;;;;;;;3.85;2.9;;;;;;;-6.88;100;96866.99;;;;
2021/02/15 01:30:51;;;;;;;3.85;2.9;;;;;;;-6.88;100;96866.99;;;;
2021/02/15 01:31:52;;;;;;;3.85;2.9;;;;;;;-6.88;100;96866.99;;;;
2021/02/15 01:32:52;;;;;;;5.1;3.25;;;;;;;-6.91;100;96845.76;;;;
2021/02/15 01:33:54;;;;;;;5.1;3.25;;;;;;;-6.91;100;96845.76;;;;
2021/02/15 01:34:54;;;;;;;5.1;3.25;;;;;;;-6.91;100;96845.76;;;;
2021/02/15 01:35:55;;;;;;;5.1;3.25;;;;;;;-6.91;100;96845.76;;;;
2021/02/15 01:36:55;;;;;;;5.1;3.25;;;;;;;-6.91;100;96845.76;;;;
2021/02/15 01:37:56;;;;;;;5.1;3.25;;;;;;;-6.91;100;96845.76;;;;
2021/02/15 01:38:57;;;;;;;5.1;3.25;;;;;;;-6.91;100;96845.76;;;;
2021/02/15 01:39:58;;;;;;;5.1;3.25;;;;;;;-6.91;100;96845.76;;;;
2021/02/15 01:40:59;;;;;;;5.1;3.25;;;;;;;-6.91;100;96845.76;;;;
2021/02/15 01:41:59;;;;;;;5.1;3.25;;;;;;;-6.91;100;96845.76;;;;
2021/02/15 01:43:00;;;;;;;5.1;3.25;;;;;;;-6.91;100;96845.76;;;;
2021/02/15 01:44:01;;;;;;;4.950001;3.7;;;;;;;-7.07;100;96826.15;;;;
2021/02/15 01:45:03;;;;;;;4.950001;3.7;;;;;;;-7.07;100;96826.15;;;;
2021/02/15 01:46:05;;;;;;;4.950001;3.7;;;;;;;-7.07;100;96826.15;;;;
2021/02/15 01:47:06;;;;;;;4.950001;3.7;;;;;;;-7.07;100;96826.15;;;;
2021/02/15 01:48:06;;;;;;;4.950001;3.7;;;;;;;-7.07;100;96826.15;;;;
2021/02/15 01:49:10;;;;;;;4.950001;3.7;;;;;;;-7.07;100;96826.15;;;;
2021/02/15 01:50:10;;;;;;;4.950001;3.7;;;;;;;-7.07;100;96826.15;;;;
2021/02/15 01:51:12;;;;;;;4.950001;3.7;;;;;;;-7.07;100;96826.15;;;;
2021/02/15 01:52:12;;;;;;;4.950001;3.7;;;;;;;-7.07;100;96826.15;;;;
2021/02/15 01:53:13;;;;;;;4.950001;3.7;;;;;;;-7.07;100;96826.15;;;;
2021/02/15 01:54:13;;;;;;;7.500001;4.300001;;;;;;;-7.33;100;96809.37;;;;
2021/02/15 01:55:14;;;;;;;7.500001;4.300001;;;;;;;-7.33;100;96809.37;;;;
2021/02/15 01:56:15;;;;;;;7.500001;4.300001;;;;;;;-7.33;100;96809.37;;;;
2021/02/15 01:57:18;;;;;;;7.500001;4.300001;;;;;;;-7.33;100;96809.37;;;;
2021/02/15 01:58:18;;;;;;;7.500001;4.300001;;;;;;;-7.33;100;96809.37;;;;
2021/02/15 01:59:21;;;;;;;7.500001;4.300001;;;;;;;-7.33;100;96809.37;;;;
2021/02/15 02:00:22;;;;;;;7.500001;4.300001;;;;;;;-7.33;100;96809.37;;;;
2021/02/15 02:01:25;;;;;;;7.500001;4.300001;;;;;;;-7.33;100;96809.37;;;;
2021/02/15 02:02:26;;;;;;;7.500001;4.300001;;;;;;;-7.33;100;96809.37;;;;
2021/02/15 02:03:26;;;;;;;7.500001;4.300001;;;;;;;-7.33;100;96809.37;;;;
2021/02/15 02:04:27;;;;;;;7.500001;4.300001;;;;;;;-7.33;100;96809.37;;;;
2021/02/15 02:05:27;;;;;;;9.799999;5.85;;;;;;;-7.65;100;96793.8;;;;
2021/02/15 02:06:28;;;;;;;9.799999;5.85;;;;;;;-7.65;100;96793.8;;;;
2021/02/15 02:07:29;;;;;;;9.799999;5.85;;;;;;;-7.65;100;96793.8;;;;
2021/02/15 02:08:30;;;;;;;9.799999;5.85;;;;;;;-7.65;100;96793.8;;;;
2021/02/15 02:09:31;;;;;;;9.799999;5.85;;;;;;;-7.65;100;96793.8;;;;
2021/02/15 02:10:31;;;;;;;9.799999;5.85;;;;;;;-7.65;100;96793.8;;;;
2021/02/15 02:11:32;;;;;;;9.799999;5.85;;;;;;;-7.65;100;96793.8;;;;
2021/02/15 02:12:33;;;;;;;9.799999;5.85;;;;;;;-7.65;100;96793.8;;;;
2021/02/15 02:13:34;;;;;;;9.799999;5.85;;;;;;;-7.65;100;96793.8;;;;
2021/02/15 02:14:34;;;;;;;9.799999;5.85;;;;;;;-7.65;100;96793.8;;;;
2021/02/15 02:15:35;;;;;;;5.550001;3.5;;;;;;;-7.93;100;96774.49;;;;
2021/02/15 02:16:36;;;;;;;5.550001;3.5;;;;;;;-7.93;100;96774.49;;;;
2021/02/15 02:17:36;;;;;;;5.550001;3.5;;;;;;;-7.93;100;96774.49;;;;
2021/02/15 02:18:38;;;;;;;5.550001;3.5;;;;;;;-7.93;100;96774.49;;;;
2021/02/15 02:19:39;;;;;;;5.550001;3.5;;;;;;;-7.93;100;96774.49;;;;
2021/02/15 02:20:39;;;;;;;5.550001;3.5;;;;;;;-7.93;100;96774.49;;;;
2021/02/15 02:21:40;;;;;;;5.550001;3.5;;;;;;;-7.93;100;96774.49;;;;
2021/02/15 02:22:41;;;;;;;5.550001;3.5;;;;;;;-7.93;100;96774.49;;;;
2021/02/15 02:23:41;;;;;;;5.550001;3.5;;;;;;;-7.93;100;96774.49;;;;
2021/02/15 02:24:42;;;;;;;5.550001;3.5;;;;;;;-7.93;100;96774.49;;;;
2021/02/15 02:25:42;;;;;;;5.550001;3.5;;;;;;;-7.93;100;96774.49;;;;
2021/02/15 02:26:43;;;;;;;5.05;3.4;;;;;;;-8.18;100;96764.96;;;;
2021/02/15 02:27:43;;;;;;;5.05;3.4;;;;;;;-8.18;100;96764.96;;;;
2021/02/15 02:28:44;;;;;;;5.05;3.4;;;;;;;-8.18;100;96764.96;;;;
2021/02/15 02:29:45;;;;;;;5.05;3.4;;;;;;;-8.18;100;96764.96;;;;
2021/02/15 02:30:45;;;;;;;5.05;3.4;;;;;;;-8.18;100;96764.96;;;;
2021/02/15 02:31:46;;;;;;;5.05;3.4;;;;;;;-8.18;100;96764.96;;;;
2021/02/15 02:32:46;;;;;;;5.05;3.4;;;;;;;-8.18;100;96764.96;;;;
2021/02/15 02:33:47;;;;;;;5.05;3.4;;;;;;;-8.18;100;96764.96;;;;
2021/02/15 02:34:48;;;;;;;5.05;3.4;;;;;;;-8.18;100;96764.96;;;;
2021/02/15 02:35:49;;;;;;;5.05;3.4;;;;;;;-8.18;100;96764.96;;;;
2021/02/15 02:36:49;;;;;;;5.05;3.4;;;;;;;-8.18;100;96764.96;;;;
2021/02/15 02:37:50;;;;;;;6.35;4.4;;;;;;;-8.34;100;96754.16;;;;
2021/02/15 02:38:51;;;;;;;6.35;4.4;;;;;;;-8.34;100;96754.16;;;;
2021/02/15 02:39:52;;;;;;;6.35;4.4;;;;;;;-8.34;100;96754.16;;;;
2021/02/15 02:40:52;;;;;;;6.35;4.4;;;;;;;-8.34;100;96754.16;;;;
2021/02/15 02:41:53;;;;;;;6.35;4.4;;;;;;;-8.34;100;96754.16;;;;
2021/02/15 02:42:55;;;;;;;6.35;4.4;;;;;;;-8.34;100;96754.16;;;;
2021/02/15 02:43:56;;;;;;;6.35;4.4;;;;;;;-8.34;100;96754.16;;;;
2021/02/15 02:44:57;;;;;;;6.35;4.4;;;;;;;-8.34;100;96754.16;;;;
2021/02/15 02:45:58;;;;;;;6.35;4.4;;;;;;;-8.34;100;96754.16;;;;
2021/02/15 02:46:58;;;;;;;6.35;4.4;;;;;;;-8.34;100;96754.16;;;;
2021/02/15 02:47:59;;;;;;;6.85;4.55;;;;;;;-8.53;100;96768.75;;;;
2021/02/15 02:49:00;;;;;;;6.85;4.55;;;;;;;-8.53;100;96768.75;;;;
2021/02/15 02:50:00;;;;;;;6.85;4.55;;;;;;;-8.53;100;96768.75;;;;
2021/02/15 02:51:02;;;;;;;6.85;4.55;;;;;;;-8.53;100;96768.75;;;;
2021/02/15 02:52:05;;;;;;;6.85;4.55;;;;;;;-8.53;100;96768.75;;;;
2021/02/15 02:53:06;;;;;;;6.85;4.55;;;;;;;-8.53;100;96768.75;;;;
2021/02/15 02:54:06;;;;;;;6.85;4.55;;;;;;;-8.53;100;96768.75;;;;
2021/02/15 02:55:07;;;;;;;6.85;4.55;;;;;;;-8.53;100;96768.75;;;;
2021/02/15 02:56:10;;;;;;;6.85;4.55;;;;;;;-8.53;100;96768.75;;;;
2021/02/15 02:57:10;;;;;;;6.85;4.55;;;;;;;-8.53;100;96768.75;;;;
2021/02/15 02:58:11;;;;;;;6.85;4.55;;;;;;;-8.53;100;96768.75;;;;
2021/02/15 02:59:21;;;;;;;7.100001;4.95;;;;;;;-8.73;100;96758.53;;;;
2021/02/15 03:00:21;;;;;;;7.100001;4.95;;;;;;;-8.73;100;96758.53;;;;
2021/02/15 03:01:24;;;;;;;7.100001;4.95;;;;;;;-8.73;100;96758.53;;;;
2021/02/15 03:02:26;;;;;;;7.100001;4.95;;;;;;;-8.73;100;96758.53;;;;
2021/02/15 03:03:26;;;;;;;7.100001;4.95;;;;;;;-8.73;100;96758.53;;;;
2021/02/15 03:04:27;;;;;;;7.100001;4.95;;;;;;;-8.73;100;96758.53;;;;
2021/02/15 03:05:27;;;;;;;7.100001;4.95;;;;;;;-8.73;100;96758.53;;;;
2021/02/15 03:06:28;;;;;;;7.100001;4.95;;;;;;;-8.73;100;96758.53;;;;
2021/02/15 03:07:30;;;;;;;7.100001;4.95;;;;;;;-8.73;100;96758.53;;;;
2021/02/15 03:08:31;;;;;;;7.100001;4.95;;;;;;;-8.73;100;96758.53;;;;
2021/02/15 03:09:31;;;;;;;5.6;4.5;;;;;;;-8.91;100;96753.41;;;;
2021/02/15 03:10:32;;;;;;;5.6;4.5;;;;;;;-8.91;100;96753.41;;;;
2021/02/15 03:11:32;;;;;;;5.6;4.5;;;;;;;-8.91;100;96753.41;;;;
2021/02/15 03:12:33;;;;;;;5.6;4.5;;;;;;;-8.91;100;96753.41;;;;
2021/02/15 03:13:34;;;;;;;5.6;4.5;;;;;;;-8.91;100;96753.41;;;;
2021/02/15 03:14:35;;;;;;;5.6;4.5;;;;;;;-8.91;100;96753.41;;;;
2021/02/15 03:15:36;;;;;;;5.6;4.5;;;;;;;-8.91;100;96753.41;;;;
2021/02/15 03:16:37;;;;;;;5.6;4.5;;;;;;;-8.91;100;96753.41;;;;
2021/02/15 03:17:38;;;;;;;5.6;4.5;;;;;;;-8.91;100;96753.41;;;;
2021/02/15 03:18:39;;;;;;;5.6;4.5;;;;;;;-8.91;100;96753.41;;;;
2021/02/15 03:19:39;;;;;;;5.950001;4.25;;;;;;;-9.04;100;96741.94;;;;
2021/02/15 03:20:40;;;;;;;5.950001;4.25;;;;;;;-9.04;100;96741.94;;;;
2021/02/15 03:21:41;;;;;;;5.950001;4.25;;;;;;;-9.04;100;96741.94;;;;
2021/02/15 03:22:41;;;;;;;5.950001;4.25;;;;;;;-9.04;100;96741.94;;;;
2021/02/15 03:23:42;;;;;;;5.950001;4.25;;;;;;;-9.04;100;96741.94;;;;
2021/02/15 03:24:42;;;;;;;5.950001;4.25;;;;;;;-9.04;100;96741.94;;;;
2021/02/15 03:25:43;;;;;;;5.950001;4.25;;;;;;;-9.04;100;96741.94;;;;
2021/02/15 03:26:43;;;;;;;5.950001;4.25;;;;;;;-9.04;100;96741.94;;;;
2021/02/15 03:27:44;;;;;;;5.950001;4.25;;;;;;;-9.04;100;96741.94;;;;
2021/02/15 03:28:45;;;;;;;5.950001;4.25;;;;;;;-9.04;100;96741.94;;;;
2021/02/15 03:29:45;;;;;;;5.950001;4.25;;;;;;;-9.04;100;96741.94;;;;
2021/02/15 03:30:47;;;;;;;6.15;4.45;;;;;;;-9.12;100;96728.88;;;;
2021/02/15 03:31:48;;;;;;;6.15;4.45;;;;;;;-9.12;100;96728.88;;;;
2021/02/15 03:32:48;;;;;;;6.15;4.45;;;;;;;-9.12;100;96728.88;;;;
2021/02/15 03:33:50;;;;;;;6.15;4.45;;;;;;;-9.12;100;96728.88;;;;
2021/02/15 03:34:50;;;;;;;6.15;4.45;;;;;;;-9.12;100;96728.88;;;;
2021/02/15 03:35:51;;;;;;;6.15;4.45;;;;;;;-9.12;100;96728.88;;;;
2021/02/15 03:36:51;;;;;;;6.15;4.45;;;;;;;-9.12;100;96728.88;;;;
2021/02/15 03:37:52;;;;;;;6.15;4.45;;;;;;;-9.12;100;96728.88;;;;
2021/02/15 03:38:53;;;;;;;6.15;4.45;;;;;;;-9.12;100;96728.88;;;;
2021/02/15 03:39:53;;;;;;;6.15;4.45;;;;;;;-9.12;100;96728.88;;;;
2021/02/15 03:40:54;;;;;;;7.85;4.95;;;;;;;-9.14;100;96711.11;;;;
2021/02/15 03:41:54;;;;;;;7.85;4.95;;;;;;;-9.14;100;96711.11;;;;
2021/02/15 03:42:55;;;;;;;7.85;4.95;;;;;;;-9.14;100;96711.11;;;;
2021/02/15 03:43:55;;;;;;;7.85;4.95;;;;;;;-9.14;100;96711.11;;;;
2021/02/15 03:44:55;;;;;;;7.85;4.95;;;;;;;-9.14;100;96711.11;;;;
2021/02/15 03:45:56;;;;;;;7.85;4.95;;;;;;;-9.14;100;96711.11;;;;
2021/02/15 03:46:56;;;;;;;7.85;4.95;;;;;;;-9.14;100;96711.11;;;;
2021/02/15 03:47:57;;;;;;;7.85;4.95;;;;;;;-9.14;100;96711.11;;;;
2021/02/15 03:48:58;;;;;;;7.85;4.95;;;;;;;-9.14;100;96711.11;;;;
2021/02/15 03:49:59;;;;;;;7.85;4.95;;;;;;;-9.14;100;96711.11;;;;
2021/02/15 03:50:59;;;;;;;7.85;4.95;;;;;;;-9.14;100;96711.11;;;;
2021/02/15 03:52:00;;;;;;;7.550001;4.349999;;;;;;;-9.23;100;96685;;;;
2021/02/15 03:53:01;;;;;;;7.550001;4.349999;;;;;;;-9.23;100;96685;;;;
2021/02/15 03:54:02;;;;;;;7.550001;4.349999;;;;;;;-9.23;100;96685;;;;
2021/02/15 03:55:03;;;;;;;7.550001;4.349999;;;;;;;-9.23;100;96685;;;;
2021/02/15 03:56:05;;;;;;;7.550001;4.349999;;;;;;;-9.23;100;96685;;;;
2021/02/15 03:57:06;;;;;;;7.550001;4.349999;;;;;;;-9.23;100;96685;;;;
2021/02/15 03:58:08;;;;;;;7.550001;4.349999;;;;;;;-9.23;100;96685;;;;
2021/02/15 03:59:08;;;;;;;7.550001;4.349999;;;;;;;-9.23;100;96685;;;;
2021/02/15 04:00:09;;;;;;;7.550001;4.349999;;;;;;;-9.23;100;96685;;;;
2021/02/15 04:01:13;;;;;;;7.550001;4.349999;;;;;;;-9.23;100;96685;;;;
2021/02/15 04:02:13;;;;;;;5.95;4.1;;;;;;;-9.27;100;96689.12;;;;
2021/02/15 04:03:14;;;;;;;5.95;4.1;;;;;;;-9.27;100;96689.12;;;;
2021/02/15 04:04:14;;;;;;;5.95;4.1;;;;;;;-9.27;100;96689.12;;;;
2021/02/15 04:05:15;;;;;;;5.95;4.1;;;;;;;-9.27;100;96689.12;;;;
2021/02/15 04:06:15;;;;;;;5.95;4.1;;;;;;;-9.27;100;96689.12;;;;
2021/02/15 04:07:16;;;;;;;5.95;4.1;;;;;;;-9.27;100;96689.12;;;;
2021/02/15 04:08:17;;;;;;;5.95;4.1;;;;;;;-9.27;100;96689.12;;;;
2021/02/15 04:09:17;;;;;;;5.95;4.1;;;;;;;-9.27;100;96689.12;;;;
2021/02/15 04:10:18;;;;;;;5.95;4.1;;;;;;;-9.27;100;96689.12;;;;
2021/02/15 04:11:18;;;;;;;5.95;4.1;;;;;;;-9.27;100;96689.12;;;;
2021/02/15 04:12:19;;;;;;;5.95;4.1;;;;;;;-9.27;100;96689.12;;;;
2021/02/15 04:13:19;;;;;;;5.15;4.1;;;;;;;-9.29;100;96687.05;;;;
2021/02/15 04:14:20;;;;;;;5.15;4.1;;;;;;;-9.29;100;96687.05;;;;
2021/02/15 04:15:20;;;;;;;5.15;4.1;;;;;;;-9.29;100;96687.05;;;;
2021/02/15 04:16:21;;;;;;;5.15;4.1;;;;;;;-9.29;100;96687.05;;;;
2021/02/15 04:17:22;;;;;;;5.15;4.1;;;;;;;-9.29;100;96687.05;;;;
2021/02/15 04:18:22;;;;;;;5.15;4.1;;;;;;;-9.29;100;96687.05;;;;
2021/02/15 04:19:23;;;;;;;5.15;4.1;;;;;;;-9.29;100;96687.05;;;;
2021/02/15 04:20:23;;;;;;;5.15;4.1;;;;;;;-9.29;100;96687.05;;;;
2021/02/15 04:21:24;;;;;;;5.15;4.1;;;;;;;-9.29;100;96687.05;;;;
2021/02/15 04:22:24;;;;;;;5.15;4.1;;;;;;;-9.29;100;96687.05;;;;
2021/02/15 04:23:26;;;;;;;5.15;4.1;;;;;;;-9.29;100;96687.05;;;;
2021/02/15 04:24:26;;;;;;;6.849999;4.249999;;;;;;;-9.4;100;96695.07;;;;
2021/02/15 04:25:26;;;;;;;6.849999;4.249999;;;;;;;-9.4;100;96695.07;;;;
2021/02/15 04:26:27;;;;;;;6.849999;4.249999;;;;;;;-9.4;100;96695.07;;;;
2021/02/15 04:27:27;;;;;;;6.849999;4.249999;;;;;;;-9.4;100;96695.07;;;;
2021/02/15 04:28:28;;;;;;;6.849999;4.249999;;;;;;;-9.4;100;96695.07;;;;
2021/02/15 04:29:28;;;;;;;6.849999;4.249999;;;;;;;-9.4;100;96695.07;;;;
2021/02/15 04:30:29;;;;;;;6.849999;4.249999;;;;;;;-9.4;100;96695.07;;;;
2021/02/15 04:31:30;;;;;;;6.849999;4.249999;;;;;;;-9.4;100;96695.07;;;;
2021/02/15 04:32:30;;;;;;;6.849999;4.249999;;;;;;;-9.4;100;96695.07;;;;
2021/02/15 04:33:31;;;;;;;6.849999;4.249999;;;;;;;-9.4;100;96695.07;;;;
2021/02/15 04:34:31;;;;;;;7.699999;4.299999;;;;;;;-9.43;100;96669.98;;;;
2021/02/15 04:35:32;;;;;;;7.699999;4.299999;;;;;;;-9.43;100;96669.98;;;;
2021/02/15 04:36:33;;;;;;;7.699999;4.299999;;;;;;;-9.43;100;96669.98;;;;
2021/02/15 04:37:33;;;;;;;7.699999;4.299999;;;;;;;-9.43;100;96669.98;;;;
2021/02/15 04:38:34;;;;;;;7.699999;4.299999;;;;;;;-9.43;100;96669.98;;;;
2021/02/15 04:39:35;;;;;;;7.699999;4.299999;;;;;;;-9.43;100;96669.98;;;;
2021/02/15 04:40:36;;;;;;;7.699999;4.299999;;;;;;;-9.43;100;96669.98;;;;
2021/02/15 04:41:36;;;;;;;7.699999;4.299999;;;;;;;-9.43;100;96669.98;;;;
2021/02/15 04:42:37;;;;;;;7.699999;4.299999;;;;;;;-9.43;100;96669.98;;;;
2021/02/15 04:43:37;;;;;;;7.699999;4.299999;;;;;;;-9.43;100;96669.98;;;;
2021/02/15 04:44:38;;;;;;;7.699999;4.299999;;;;;;;-9.43;100;96669.98;;;;
2021/02/15 04:45:38;;;;;;;5.25;4.25;;;;;;;-9.56;100;96682.01;;;;
2021/02/15 04:46:39;;;;;;;5.25;4.25;;;;;;;-9.56;100;96682.01;;;;
2021/02/15 04:47:39;;;;;;;5.25;4.25;;;;;;;-9.56;100;96682.01;;;;
2021/02/15 04:48:40;;;;;;;5.25;4.25;;;;;;;-9.56;100;96682.01;;;;
2021/02/15 04:49:40;;;;;;;5.25;4.25;;;;;;;-9.56;100;96682.01;;;;
2021/02/15 04:50:41;;;;;;;5.25;4.25;;;;;;;-9.56;100;96682.01;;;;
2021/02/15 04:51:41;;;;;;;5.25;4.25;;;;;;;-9.56;100;96682.01;;;;
2021/02/15 04:52:42;;;;;;;5.25;4.25;;;;;;;-9.56;100;96682.01;;;;
2021/02/15 04:53:43;;;;;;;5.25;4.25;;;;;;;-9.56;100;96682.01;;;;
2021/02/15 04:54:44;;;;;;;5.25;4.25;;;;;;;-9.56;100;96682.01;;;;
2021/02/15 04:55:44;;;;;;;7.55;4.4;;;;;;;-9.8;100;96682.82;;;;
2021/02/15 04:56:45;;;;;;;7.55;4.4;;;;;;;-9.8;100;96682.82;;;;
2021/02/15 04:57:45;;;;;;;7.55;4.4;;;;;;;-9.8;100;96682.82;;;;
2021/02/15 04:58:48;;;;;;;7.55;4.4;;;;;;;-9.8;100;96682.82;;;;
2021/02/15 04:59:48;;;;;;;7.55;4.4;;;;;;;-9.8;100;96682.82;;;;
2021/02/15 05:00:49;;;;;;;7.55;4.4;;;;;;;-9.8;100;96682.82;;;;
2021/02/15 05:01:49;;;;;;;7.55;4.4;;;;;;;-9.8;100;96682.82;;;;
2021/02/15 05:02:50;;;;;;;7.55;4.4;;;;;;;-9.8;100;96682.82;;;;
2021/02/15 05:03:50;;;;;;;7.55;4.4;;;;;;;-9.8;100;96682.82;;;;
2021/02/15 05:04:51;;;;;;;7.55;4.4;;;;;;;-9.8;100;96682.82;;;;
2021/02/15 05:05:52;;;;;;;7.55;4.4;;;;;;;-9.8;100;96682.82;;;;
2021/02/15 05:06:52;;;;;;;7.85;4.7;;;;;;;-10.05;100;96678.91;;;;
2021/02/15 05:07:53;;;;;;;7.85;4.7;;;;;;;-10.05;100;96678.91;;;;
2021/02/15 05:08:54;;;;;;;7.85;4.7;;;;;;;-10.05;100;96678.91;;;;
2021/02/15 05:09:54;;;;;;;7.85;4.7;;;;;;;-10.05;100;96678.91;;;;
2021/02/15 05:10:55;;;;;;;7.85;4.7;;;;;;;-10.05;100;96678.91;;;;
2021/02/15 05:11:55;;;;;;;7.85;4.7;;;;;;;-10.05;100;96678.91;;;;
2021/02/15 05:12:55;;;;;;;7.85;4.7;;;;;;;-10.05;100;96678.91;;;;
2021/02/15 05:13:56;;;;;;;7.85;4.7;;;;;;;-10.05;100;96678.91;;;;
2021/02/15 05:14:56;;;;;;;7.85;4.7;;;;;;;-10.05;100;96678.91;;;;
2021/02/15 05:15:57;;;;;;;7.85;4.7;;;;;;;-10.05;100;96678.91;;;;
2021/02/15 05:16:58;;;;;;;6.400001;4.55;;;;;;;-10.17;100;96679.14;;;;
2021/02/15 05:17:58;;;;;;;6.400001;4.55;;;;;;;-10.17;100;96679.14;;;;
2021/02/15 05:18:59;;;;;;;6.400001;4.55;;;;;;;-10.17;100;96679.14;;;;
2021/02/15 05:19:59;;;;;;;6.400001;4.55;;;;;;;-10.17;100;96679.14;;;;
2021/02/15 05:21:00;;;;;;;6.400001;4.55;;;;;;;-10.17;100;96679.14;;;;
2021/02/15 05:22:01;;;;;;;6.400001;4.55;;;;;;;-10.17;100;96679.14;;;;
2021/02/15 05:23:01;;;;;;;6.400001;4.55;;;;;;;-10.17;100;96679.14;;;;
2021/02/15 05:24:02;;;;;;;6.400001;4.55;;;;;;;-10.17;100;96679.14;;;;
2021/02/15 05:25:04;;;;;;;6.400001;4.55;;;;;;;-10.17;100;96679.14;;;;
2021/02/15 05:26:06;;;;;;;6.400001;4.55;;;;;;;-10.17;100;96679.14;;;;
2021/02/15 05:27:06;;;;;;;6.400001;4.55;;;;;;;-10.17;100;96679.14;;;;
2021/02/15 05:28:07;;;;;;;6.600001;4.8;;;;;;;-10.31;100;96688.98;;;;
2021/02/15 05:29:07;;;;;;;6.600001;4.8;;;;;;;-10.31;100;96688.98;;;;
2021/02/15 05:30:08;;;;;;;6.600001;4.8;;;;;;;-10.31;100;96688.98;;;;
2021/02/15 05:31:11;;;;;;;6.600001;4.8;;;;;;;-10.31;100;96688.98;;;;
2021/02/15 05:32:12;;;;;;;6.600001;4.8;;;;;;;-10.31;100;96688.98;;;;
2021/02/15 05:33:12;;;;;;;6.600001;4.8;;;;;;;-10.31;100;96688.98;;;;
2021/02/15 05:34:13;;;;;;;6.600001;4.8;;;;;;;-10.31;100;96688.98;;;;
2021/02/15 05:35:13;;;;;;;6.600001;4.8;;;;;;;-10.31;100;96688.98;;;;
2021/02/15 05:36:14;;;;;;;6.600001;4.8;;;;;;;-10.31;100;96688.98;;;;
2021/02/15 05:37:15;;;;;;;6.600001;4.8;;;;;;;-10.31;100;96688.98;;;;
2021/02/15 05:38:15;;;;;;;6.25;4.699999;;;;;;;-10.53;100;96711.4;;;;
2021/02/15 05:39:18;;;;;;;6.25;4.699999;;;;;;;-10.53;100;96711.4;;;;
2021/02/15 05:40:18;;;;;;;6.25;4.699999;;;;;;;-10.53;100;96711.4;;;;
2021/02/15 05:41:19;;;;;;;6.25;4.699999;;;;;;;-10.53;100;96711.4;;;;
2021/02/15 05:42:20;;;;;;;6.25;4.699999;;;;;;;-10.53;100;96711.4;;;;
2021/02/15 05:43:20;;;;;;;6.25;4.699999;;;;;;;-10.53;100;96711.4;;;;
2021/02/15 05:44:21;;;;;;;6.25;4.699999;;;;;;;-10.53;100;96711.4;;;;
2021/02/15 05:45:22;;;;;;;6.25;4.699999;;;;;;;-10.53;100;96711.4;;;;
2021/02/15 05:46:22;;;;;;;6.25;4.699999;;;;;;;-10.53;100;96711.4;;;;
2021/02/15 05:47:25;;;;;;;6.25;4.699999;;;;;;;-10.53;100;96711.4;;;;
2021/02/15 05:48:27;;;;;;;6.25;4.699999;;;;;;;-10.53;100;96711.4;;;;
2021/02/15 05:49:28;;;;;;;7.35;5.050001;;;;;;;-10.71;100;96716.63;;;;
2021/02/15 05:50:29;;;;;;;7.35;5.050001;;;;;;;-10.71;100;96716.63;;;;
2021/02/15 05:51:31;;;;;;;7.35;5.050001;;;;;;;-10.71;100;96716.63;;;;
2021/02/15 05:52:32;;;;;;;7.35;5.050001;;;;;;;-10.71;100;96716.63;;;;
2021/02/15 05:53:33;;;;;;;7.35;5.050001;;;;;;;-10.71;100;96716.63;;;;
2021/02/15 05:54:34;;;;;;;7.35;5.050001;;;;;;;-10.71;100;96716.63;;;;
2021/02/15 05:55:34;;;;;;;7.35;5.050001;;;;;;;-10.71;100;96716.63;;;;
2021/02/15 05:56:35;;;;;;;7.35;5.050001;;;;;;;-10.71;100;96716.63;;;;
2021/02/15 05:57:36;;;;;;;7.35;5.050001;;;;;;;-10.71;100;96716.63;;;;
2021/02/15 05:58:37;;;;;;;7.35;5.050001;;;;;;;-10.71;100;96716.63;;;;
2021/02/15 05:59:37;;;;;;;7.35;5.050001;;;;;;;-10.71;100;96716.63;;;;
2021/02/15 06:00:38;;;;;;;6.3;4;;;;;;;-10.78;100;96721.75;;;;
2021/02/15 06:01:55;;;;;;;6.3;4;;;;;;;-10.78;100;96721.75;;;;
2021/02/15 06:02:58;;;;;;;6.3;4;;;;;;;-10.78;100;96721.75;;;;